createdAt,value
2022-12-29T00:00:06.940Z,94050.00
2022-12-29T00:04:20.292Z,94067.00
2022-12-29T00:08:40.989Z,94070.00
2022-12-29T00:13:02.717Z,94065.00
2022-12-29T00:17:05.472Z,94069.00
2022-12-29T00:21:32.963Z,94064.00
2022-12-29T00:25:56.291Z,94061.00
2022-12-29T00:30:19.822Z,94053.00
2022-12-29T00:34:42.473Z,94049.00
2022-12-29T00:39:08.362Z,94045.00
2022-12-29T00:43:30.670Z,94042.00
2022-12-29T00:47:33.916Z,94030.00
2022-12-29T00:51:36.813Z,94026.00
2022-12-29T00:56:02.973Z,94025.00
2022-12-29T01:00:06.410Z,94023.00
2022-12-29T01:04:14.437Z,94017.00
2022-12-29T01:08:29.019Z,94018.00
2022-12-29T01:12:47.147Z,94027.00
2022-12-29T01:16:50.636Z,94013.00
2022-12-29T01:21:00.567Z,94005.00
2022-12-29T01:25:03.239Z,94021.00
2022-12-29T01:29:07.930Z,94024.00
2022-12-29T01:33:26.791Z,94007.00
2022-12-29T01:37:31.857Z,94016.00
2022-12-29T01:41:34.014Z,94004.00
2022-12-29T01:45:37.365Z,94007.00
2022-12-29T01:49:40.016Z,94001.00
2022-12-29T01:53:43.241Z,93998.00
2022-12-29T01:57:50.777Z,93968.00
2022-12-29T02:01:53.487Z,93978.00
2022-12-29T02:06:10.360Z,93974.00
2022-12-29T02:10:14.528Z,93968.00
2022-12-29T02:14:19.312Z,93958.00
2022-12-29T02:18:39.336Z,93974.00
2022-12-29T02:23:09.041Z,93967.00
2022-12-29T02:27:30.435Z,93963.00
2022-12-29T02:32:07.195Z,93952.00
2022-12-29T02:36:31.702Z,93960.00
2022-12-29T02:41:10.748Z,93953.00
2022-12-29T02:45:31.298Z,93943.00
2022-12-29T02:50:19.636Z,93940.00
2022-12-29T02:54:41.449Z,93941.00
2022-12-29T02:58:46.094Z,93939.00
2022-12-29T03:03:26.819Z,93954.00
2022-12-29T03:07:49.930Z,93946.00
2022-12-29T03:12:25.547Z,93938.00
2022-12-29T03:16:53.698Z,93934.00
2022-12-29T03:21:07.688Z,93937.00
2022-12-29T03:25:36.733Z,93945.00
2022-12-29T03:29:55.110Z,93931.00
2022-12-29T03:33:59.780Z,93929.00
2022-12-29T03:38:26.892Z,93935.00
2022-12-29T03:42:33.687Z,93925.00
2022-12-29T03:46:36.998Z,93922.00
2022-12-29T03:50:39.655Z,93926.00
2022-12-29T03:54:44.265Z,93916.00
2022-12-29T03:58:49.847Z,93906.00
2022-12-29T04:03:06.024Z,93930.00
2022-12-29T04:07:08.787Z,93940.00
2022-12-29T04:11:10.770Z,93928.00
2022-12-29T04:15:13.800Z,93915.00
2022-12-29T04:19:17.697Z,93941.00
2022-12-29T04:23:31.565Z,93929.00
2022-12-29T04:27:33.645Z,93941.00
2022-12-29T04:31:55.209Z,93947.00
2022-12-29T04:35:58.748Z,93928.00
2022-12-29T04:40:01.839Z,93928.00
2022-12-29T04:44:07.190Z,93942.00
2022-12-29T04:48:27.883Z,93925.00
2022-12-29T04:52:56.690Z,93937.00
2022-12-29T04:56:59.695Z,93935.00
2022-12-29T05:01:01.954Z,93940.00
2022-12-29T05:05:06.827Z,93937.00
2022-12-29T05:09:22.840Z,93934.00
2022-12-29T05:13:30.812Z,93946.00
2022-12-29T05:17:33.250Z,93954.00
2022-12-29T05:21:38.809Z,93939.00
2022-12-29T05:25:41.080Z,93958.00
2022-12-29T05:29:55.448Z,93961.00
2022-12-29T05:33:57.625Z,93962.00
2022-12-29T05:38:00.924Z,93952.00
2022-12-29T05:42:03.514Z,93959.00
2022-12-29T05:46:20.223Z,93951.00
2022-12-29T05:50:43.011Z,93947.00
2022-12-29T05:54:47.272Z,93940.00
2022-12-29T05:58:54.842Z,93932.00
2022-12-29T06:03:00.821Z,93949.00
2022-12-29T06:07:03.103Z,93945.00
2022-12-29T06:11:15.258Z,93942.00
2022-12-29T06:15:27.954Z,93941.00
2022-12-29T06:19:34.057Z,93935.00
2022-12-29T06:23:36.459Z,93945.00
2022-12-29T06:27:42.028Z,93937.00
2022-12-29T06:31:47.531Z,93942.00
2022-12-29T06:35:50.351Z,93936.00
2022-12-29T06:39:53.271Z,93949.00
2022-12-29T06:44:01.911Z,93938.00
2022-12-29T06:48:25.709Z,93935.00
2022-12-29T06:52:29.794Z,93934.00
2022-12-29T06:56:32.010Z,93941.00
2022-12-29T07:00:34.720Z,93924.00
2022-12-29T07:04:39.109Z,93939.00
2022-12-29T07:08:41.744Z,93930.00
2022-12-29T07:12:46.910Z,93941.00
2022-12-29T07:16:48.883Z,93930.00
2022-12-29T07:20:50.870Z,93931.00
2022-12-29T07:24:52.790Z,93928.00
2022-12-29T07:28:54.732Z,93929.00
2022-12-29T07:32:56.800Z,93920.00
2022-12-29T07:36:58.956Z,93949.00
2022-12-29T07:41:02.626Z,93937.00
2022-12-29T07:45:05.041Z,93938.00
2022-12-29T07:49:13.598Z,93946.00
2022-12-29T07:53:16.061Z,93953.00
2022-12-29T07:57:18.078Z,93938.00
2022-12-29T08:01:20.757Z,93925.00
2022-12-29T08:05:24.842Z,93948.00
2022-12-29T08:09:27.070Z,93939.00
2022-12-29T08:13:28.926Z,93933.00
2022-12-29T08:17:30.993Z,93926.00
2022-12-29T08:21:33.577Z,93936.00
2022-12-29T08:25:35.729Z,93939.00
2022-12-29T08:29:37.791Z,93934.00
2022-12-29T08:33:39.872Z,93948.00
2022-12-29T08:37:44.630Z,93952.00
2022-12-29T08:41:46.983Z,93960.00
2022-12-29T08:45:50.749Z,93960.00
2022-12-29T08:49:54.951Z,93959.00
2022-12-29T08:53:58.210Z,93958.00
2022-12-29T08:58:00.526Z,93962.00
2022-12-29T09:02:03.587Z,93963.00
2022-12-29T09:06:06.342Z,93948.00
2022-12-29T09:10:09.704Z,93953.00
2022-12-29T09:14:11.785Z,93961.00
2022-12-29T09:18:20.328Z,93967.00
2022-12-29T09:22:23.888Z,93968.00
2022-12-29T09:26:26.497Z,93973.00
2022-12-29T09:30:28.849Z,93976.00
2022-12-29T09:34:32.335Z,93975.00
2022-12-29T09:38:34.360Z,93970.00
2022-12-29T09:42:47.810Z,93963.00
2022-12-29T09:46:52.725Z,93962.00
2022-12-29T09:51:02.666Z,93948.00
2022-12-29T09:55:14.190Z,93940.00
2022-12-29T09:59:21.243Z,93942.00
2022-12-29T10:03:30.549Z,93929.00
2022-12-29T10:07:45.104Z,93932.00
2022-12-29T10:12:11.535Z,93934.00
2022-12-29T10:16:27.355Z,93936.00
2022-12-29T10:20:56.442Z,93938.00
2022-12-29T10:25:03.738Z,93933.00
2022-12-29T10:29:08.104Z,93936.00
2022-12-29T10:33:16.168Z,93930.00
2022-12-29T10:37:44.691Z,93929.00
2022-12-29T10:42:00.393Z,93929.00
2022-12-29T10:46:10.301Z,93928.00
2022-12-29T10:50:14.273Z,93935.00
2022-12-29T10:54:22.264Z,93933.00
2022-12-29T10:58:28.929Z,93919.00
2022-12-29T11:02:55.868Z,93922.00
2022-12-29T11:06:59.697Z,93906.00
2022-12-29T11:11:08.617Z,93901.00
2022-12-29T11:15:11.225Z,93900.00
2022-12-29T11:19:25.411Z,93902.00
2022-12-29T11:23:38.980Z,93919.00
2022-12-29T11:28:03.576Z,93924.00
2022-12-29T11:32:35.632Z,93904.00
2022-12-29T11:36:38.460Z,93893.00
2022-12-29T11:40:41.133Z,93905.00
2022-12-29T11:44:46.252Z,93896.00
2022-12-29T11:48:49.491Z,93900.00
2022-12-29T11:52:59.968Z,93899.00
2022-12-29T11:57:13.953Z,93890.00
2022-12-29T12:01:32.818Z,93894.00
2022-12-29T12:06:02.257Z,93900.00
2022-12-29T12:10:08.370Z,93878.00
2022-12-29T12:14:23.717Z,93877.00
2022-12-29T12:18:49.258Z,93886.00
2022-12-29T12:22:59.775Z,93878.00
2022-12-29T12:27:22.021Z,93879.00
2022-12-29T12:31:50.796Z,93869.00
2022-12-29T12:36:04.734Z,93885.00
2022-12-29T12:40:40.904Z,93884.00
2022-12-29T12:45:13.000Z,93875.00
2022-12-29T12:49:27.599Z,93862.00
2022-12-29T12:53:35.215Z,93871.00
2022-12-29T12:58:04.896Z,93862.00
2022-12-29T13:02:25.911Z,93857.00
2022-12-29T13:06:33.897Z,93858.00
2022-12-29T13:11:00.198Z,93859.00
2022-12-29T13:15:05.810Z,93858.00
2022-12-29T13:19:20.580Z,93851.00
2022-12-29T13:23:42.472Z,93846.00
2022-12-29T13:28:07.650Z,93864.00
2022-12-29T13:32:09.480Z,93864.00
2022-12-29T13:36:20.846Z,93872.00
2022-12-29T13:40:29.311Z,93871.00
2022-12-29T13:44:52.336Z,93872.00
2022-12-29T13:49:07.497Z,93881.00
2022-12-29T13:53:26.714Z,93874.00
2022-12-29T13:57:45.939Z,93871.00
2022-12-29T14:01:54.219Z,93873.00
2022-12-29T14:06:11.725Z,93891.00
2022-12-29T14:10:49.332Z,93886.00
2022-12-29T14:14:51.339Z,93889.00
2022-12-29T14:18:55.330Z,93887.00
2022-12-29T14:23:26.676Z,93881.00
2022-12-29T14:27:30.102Z,93891.00
2022-12-29T14:31:32.224Z,93893.00
2022-12-29T14:35:47.230Z,93890.00
2022-12-29T14:39:49.180Z,93907.00
2022-12-29T14:44:19.884Z,93899.00
2022-12-29T14:48:44.271Z,93912.00
2022-12-29T14:53:02.452Z,93910.00
2022-12-29T14:57:10.150Z,93897.00
2022-12-29T15:01:28.069Z,93911.00
2022-12-29T15:05:40.357Z,93908.00
2022-12-29T15:10:07.851Z,93914.00
2022-12-29T15:14:32.745Z,93903.00
2022-12-29T15:18:35.035Z,93898.00
2022-12-29T15:22:36.917Z,93896.00
2022-12-29T15:26:43.415Z,93902.00
2022-12-29T15:30:56.823Z,93898.00
2022-12-29T15:35:04.554Z,93908.00
2022-12-29T15:39:29.554Z,93901.00
2022-12-29T15:43:49.697Z,93901.00
2022-12-29T15:47:56.079Z,93921.00
2022-12-29T15:51:59.470Z,93913.00
2022-12-29T15:56:11.803Z,93915.00
2022-12-29T16:00:24.345Z,93919.00
2022-12-29T16:04:30.293Z,93906.00
2022-12-29T16:08:35.203Z,93907.00
2022-12-29T16:12:39.524Z,93902.00
2022-12-29T16:16:43.521Z,93902.00
2022-12-29T16:20:45.694Z,93901.00
2022-12-29T16:24:49.698Z,93894.00
2022-12-29T16:28:57.577Z,93903.00
2022-12-29T16:33:05.040Z,93909.00
2022-12-29T16:37:33.398Z,93914.00
2022-12-29T16:41:35.961Z,93904.00
2022-12-29T16:46:21.936Z,93919.00
2022-12-29T16:50:28.605Z,93911.00
2022-12-29T16:54:38.620Z,93916.00
2022-12-29T16:58:43.490Z,93901.00
2022-12-29T17:02:48.600Z,93900.00
2022-12-29T17:06:51.058Z,93912.00
2022-12-29T17:11:15.586Z,93903.00
2022-12-29T17:15:35.699Z,93902.00
2022-12-29T17:19:39.180Z,93903.00
2022-12-29T17:23:45.371Z,93916.00
2022-12-29T17:27:51.101Z,93921.00
2022-12-29T17:31:55.483Z,93931.00
2022-12-29T17:35:58.565Z,93920.00
2022-12-29T17:40:03.893Z,93921.00
2022-12-29T17:44:08.627Z,93936.00
2022-12-29T17:48:17.132Z,93940.00
2022-12-29T17:52:19.945Z,93947.00
2022-12-29T17:56:23.143Z,93936.00
2022-12-29T18:00:30.440Z,93954.00
2022-12-29T18:04:33.160Z,93938.00
2022-12-29T18:08:37.890Z,93931.00
2022-12-29T18:12:43.983Z,93938.00
2022-12-29T18:16:46.769Z,93920.00
2022-12-29T18:20:50.600Z,93942.00
2022-12-29T18:24:53.617Z,93909.00
2022-12-29T18:28:58.058Z,93931.00
2022-12-29T18:33:21.935Z,93930.00
2022-12-29T18:37:29.274Z,93932.00
2022-12-29T18:41:31.718Z,93930.00
2022-12-29T18:45:35.638Z,93935.00
2022-12-29T18:49:38.691Z,93921.00
2022-12-29T18:53:42.001Z,93914.00
2022-12-29T18:57:44.939Z,93913.00
2022-12-29T19:01:48.190Z,93908.00
2022-12-29T19:05:50.288Z,93911.00
2022-12-29T19:09:52.786Z,93916.00
2022-12-29T19:13:56.270Z,93908.00
2022-12-29T19:18:41.648Z,93927.00
2022-12-29T19:22:24.928Z,93914.00
2022-12-29T19:26:34.795Z,93905.00
2022-12-29T19:30:40.692Z,93930.00
2022-12-29T19:34:42.635Z,93919.00
2022-12-29T19:38:46.206Z,93947.00
2022-12-29T19:42:52.667Z,93934.00
2022-12-29T19:46:55.549Z,93929.00
2022-12-29T19:51:05.751Z,93942.00
2022-12-29T19:55:08.404Z,93944.00
2022-12-29T19:59:11.452Z,93931.00
2022-12-29T20:03:13.558Z,93939.00
2022-12-29T20:07:17.977Z,93952.00
2022-12-29T20:11:21.540Z,93932.00
2022-12-29T20:15:25.553Z,93929.00
2022-12-29T20:19:27.849Z,93929.00
2022-12-29T20:23:30.680Z,93920.00
2022-12-29T20:27:34.371Z,93926.00
2022-12-29T20:31:39.172Z,93925.00
2022-12-29T20:35:43.178Z,93928.00
2022-12-29T20:39:45.687Z,93905.00
